Terminal Aerodrome Forecast
Issued by NWS

Home | Current Version | Previous Version | Text Only | Print | Product List | Glossary On
Versions: 1 2 3 4 5 6 7 8 9 10 11 12 13 14 15 16 17 18 19 20 21 22 23 24 25
000
FTUS41 KBUF 282300
TAFIAG
TAF
KIAG 282320Z 0100/0124 21007KT P6SM SKC
     FM010600 16004KT P6SM BKN150
     FM011200 VRB03KT P6SM VCSH OVC045
     FM011600 22005KT 2SM -SN OVC035
     FM011800 26004KT 2SM -SN OVC025=

USA.gov is the U.S. government's official web portal to all federal, state and local government web resources and services.